createdAt,value
2018-08-19T00:00:04.034Z,99940.99
2018-08-19T00:02:36.756Z,99944.50
2018-08-19T00:05:14.337Z,99953.33
2018-08-19T00:07:44.741Z,99938.11
2018-08-19T00:10:15.396Z,99939.72
2018-08-19T00:12:49.276Z,99941.05
2018-08-19T00:15:19.716Z,99943.47
2018-08-19T00:17:52.756Z,99942.13
2018-08-19T00:20:23.036Z,99937.88
2018-08-19T00:22:56.697Z,99939.22
2018-08-19T00:25:33.495Z,99941.61
2018-08-19T00:28:08.143Z,99936.28
2018-08-19T00:30:39.543Z,99940.81
2018-08-19T00:33:11.874Z,99938.16
2018-08-19T00:35:45.086Z,99945.89
2018-08-19T00:38:16.863Z,99941.63
2018-08-19T00:40:46.399Z,99945.89
2018-08-19T00:43:18.353Z,99946.72
2018-08-19T00:45:49.522Z,99945.91
2018-08-19T00:48:21.469Z,99946.70
2018-08-19T00:50:51.266Z,99940.56
2018-08-19T00:53:21.011Z,99936.03
2018-08-19T00:55:50.905Z,99938.17
2018-08-19T00:58:22.761Z,99941.34
2018-08-19T01:00:52.829Z,99943.22
2018-08-19T01:03:24.530Z,99944.00
2018-08-19T01:05:55.272Z,99939.98
2018-08-19T01:08:25.390Z,99941.31
2018-08-19T01:10:56.783Z,99937.89
2018-08-19T01:13:26.965Z,99940.52
2018-08-19T01:15:57.221Z,99941.58
2018-08-19T01:18:28.116Z,99941.03
2018-08-19T01:21:11.079Z,99942.87
2018-08-19T01:23:41.809Z,99942.53
2018-08-19T01:26:12.771Z,99936.95
2018-08-19T01:28:44.907Z,99934.28
2018-08-19T01:31:16.275Z,99936.14
2018-08-19T01:33:46.615Z,99936.11
2018-08-19T01:36:16.709Z,99946.48
2018-08-19T01:38:46.506Z,99940.35
2018-08-19T01:41:16.560Z,99945.38
2018-08-19T01:43:58.565Z,99952.81
2018-08-19T01:46:28.518Z,99957.35
2018-08-19T01:48:59.079Z,99955.19
2018-08-19T01:51:29.046Z,99951.44
2018-08-19T01:54:00.431Z,99952.77
2018-08-19T01:56:30.815Z,99957.84
2018-08-19T01:59:00.494Z,99953.55
2018-08-19T02:01:43.071Z,99954.89
2018-08-19T02:04:13.125Z,99951.72
2018-08-19T02:06:44.436Z,99952.24
2018-08-19T02:09:16.029Z,99945.59
2018-08-19T02:11:47.938Z,99938.34
2018-08-19T02:14:19.922Z,99940.50
2018-08-19T02:16:51.403Z,99937.77
2018-08-19T02:19:21.528Z,99937.74
2018-08-19T02:21:52.192Z,99938.35
2018-08-19T02:24:22.024Z,99937.23
2018-08-19T02:26:53.011Z,99939.60
2018-08-19T02:29:37.091Z,99940.41
2018-08-19T02:32:09.192Z,99940.87
2018-08-19T02:34:41.772Z,99939.28
2018-08-19T02:37:17.874Z,99940.58
2018-08-19T02:39:50.205Z,99937.36
2018-08-19T02:42:27.144Z,99936.84
2018-08-19T02:45:02.958Z,99937.59
2018-08-19T02:47:33.793Z,99932.77
2018-08-19T02:50:04.682Z,99927.20
2018-08-19T02:52:37.646Z,99928.00
2018-08-19T02:55:09.172Z,99925.87
2018-08-19T02:57:42.537Z,99929.34
2018-08-19T03:00:13.434Z,99929.05
2018-08-19T03:02:44.154Z,99928.19
2018-08-19T03:05:15.420Z,99927.64
2018-08-19T03:07:45.747Z,99926.31
2018-08-19T03:10:16.779Z,99925.78
2018-08-19T03:12:47.329Z,99923.31
2018-08-19T03:15:17.627Z,99929.67
2018-08-19T03:17:49.612Z,99933.41
2018-08-19T03:20:21.622Z,99925.66
2018-08-19T03:22:52.578Z,99929.36
2018-08-19T03:25:23.228Z,99936.00
2018-08-19T03:27:52.831Z,99933.34
2018-08-19T03:30:22.546Z,99929.64
2018-08-19T03:32:57.427Z,99933.63
2018-08-19T03:35:28.713Z,99925.06
2018-08-19T03:38:02.179Z,99922.50
2018-08-19T03:40:32.352Z,99927.54
2018-08-19T03:43:02.938Z,99933.37
2018-08-19T03:45:33.226Z,99933.06
2018-08-19T03:48:03.160Z,99930.34
2018-08-19T03:50:36.027Z,99935.93
2018-08-19T03:53:05.990Z,99938.27
2018-08-19T03:55:38.115Z,99929.77
2018-08-19T03:58:09.174Z,99937.59
2018-08-19T04:00:41.342Z,99934.05
2018-08-19T04:03:19.134Z,99941.25
2018-08-19T04:05:54.095Z,99942.63
2018-08-19T04:08:27.362Z,99942.63
2018-08-19T04:10:57.055Z,99942.88
2018-08-19T04:13:29.246Z,99944.47
2018-08-19T04:16:00.598Z,99946.81
2018-08-19T04:18:35.298Z,99954.78
2018-08-19T04:21:08.764Z,99950.46
2018-08-19T04:23:41.480Z,99953.65
2018-08-19T04:26:11.925Z,99960.36
2018-08-19T04:28:44.348Z,99954.78
2018-08-19T04:31:19.278Z,99954.73
2018-08-19T04:33:49.702Z,99956.78
2018-08-19T04:36:20.939Z,99957.58
2018-08-19T04:38:50.696Z,99953.80
2018-08-19T04:41:21.434Z,99955.39
2018-08-19T04:43:51.467Z,99958.29
2018-08-19T04:46:21.388Z,99959.34
2018-08-19T04:48:51.603Z,99951.27
2018-08-19T04:51:21.998Z,99954.03
2018-08-19T04:53:52.165Z,99956.25
2018-08-19T04:56:22.650Z,99918.38
2018-08-19T04:58:55.497Z,99958.47
2018-08-19T05:01:25.625Z,99962.46
2018-08-19T05:03:55.978Z,99963.27
2018-08-19T05:06:26.557Z,99967.86
2018-08-19T05:08:56.254Z,99965.59
2018-08-19T05:11:28.259Z,99968.84
2018-08-19T05:14:02.050Z,99973.16
2018-08-19T05:16:32.672Z,99966.40
2018-08-19T05:19:05.389Z,99968.33
2018-08-19T05:30:45.976Z,99984.78
2018-08-19T05:33:15.645Z,99985.36
2018-08-19T05:35:46.225Z,99989.98
2018-08-19T05:38:17.275Z,99992.19
2018-08-19T05:40:52.200Z,99983.90
2018-08-19T05:43:23.136Z,99986.80
2018-08-19T05:46:00.407Z,99985.50
2018-08-19T05:48:30.989Z,99986.95
2018-08-19T05:51:01.201Z,99988.52
2018-08-19T05:53:32.451Z,99987.50
2018-08-19T05:56:02.249Z,99989.64
2018-08-19T05:58:32.167Z,99991.03
2018-08-19T06:01:01.961Z,99995.58
2018-08-19T06:03:32.091Z,99999.38
2018-08-19T06:06:02.488Z,100001.27
2018-08-19T06:08:31.928Z,99996.00
2018-08-19T06:11:01.818Z,100001.23
2018-08-19T06:13:32.418Z,99999.90
2018-08-19T06:16:02.432Z,99997.05
2018-08-19T06:18:32.328Z,99999.50
2018-08-19T06:21:02.282Z,99996.37
2018-08-19T06:23:32.445Z,99997.16
2018-08-19T06:26:03.056Z,99998.01
2018-08-19T06:28:33.358Z,99997.52
2018-08-19T06:31:03.772Z,99993.04
2018-08-19T06:33:34.001Z,99994.13
2018-08-19T06:36:03.591Z,99990.41
2018-08-19T06:38:33.247Z,99991.75
2018-08-19T06:41:04.383Z,99992.81
2018-08-19T06:43:34.243Z,99996.02
2018-08-19T06:46:04.606Z,100002.68
2018-08-19T06:48:35.758Z,99989.62
2018-08-19T06:51:07.819Z,99989.62
2018-08-19T06:53:39.276Z,99989.34
2018-08-19T06:56:10.685Z,99991.20
2018-08-19T06:58:42.537Z,99983.47
2018-08-19T07:01:16.717Z,99980.50
2018-08-19T07:03:53.349Z,99989.23
2018-08-19T07:06:24.992Z,99984.66
2018-08-19T07:08:58.175Z,99984.92
2018-08-19T07:11:28.766Z,99984.40
2018-08-19T07:13:59.733Z,99952.11
2018-08-19T07:16:35.515Z,99981.34
2018-08-19T07:19:13.446Z,99983.91
2018-08-19T07:21:57.889Z,99984.06
2018-08-19T07:24:31.961Z,99954.74
2018-08-19T07:27:05.088Z,99978.34
2018-08-19T07:29:38.152Z,99984.19
2018-08-19T07:32:11.423Z,99974.41
2018-08-19T07:34:43.779Z,99975.69
2018-08-19T07:37:15.355Z,99973.05
2018-08-19T07:39:50.758Z,99949.86
2018-08-19T07:42:21.150Z,99968.29
2018-08-19T07:44:51.167Z,99973.92
2018-08-19T07:47:22.356Z,99973.05
2018-08-19T07:54:59.662Z,99968.63
2018-08-19T07:57:39.141Z,99963.99
2018-08-19T08:00:12.795Z,99959.08
2018-08-19T08:03:04.974Z,99961.30
2018-08-19T08:05:43.016Z,99964.20
2018-08-19T08:08:15.581Z,99968.52
2018-08-19T08:10:46.736Z,99961.83
2018-08-19T08:13:17.592Z,99961.72
2018-08-19T08:15:56.064Z,99960.43
2018-08-19T08:18:27.291Z,99961.02
2018-08-19T08:21:03.032Z,99955.63
2018-08-19T08:23:33.054Z,99954.31
2018-08-19T08:26:03.399Z,99955.25
2018-08-19T08:28:33.831Z,99948.95
2018-08-19T08:31:08.632Z,99954.80
2018-08-19T08:33:41.738Z,99947.64
2018-08-19T08:36:11.881Z,99949.03
2018-08-19T08:38:42.510Z,99941.59
2018-08-19T08:41:12.230Z,99940.47
2018-08-19T08:43:42.083Z,99937.31
2018-08-19T08:46:12.739Z,99941.27
2018-08-19T08:48:44.060Z,99938.36
2018-08-19T08:51:14.162Z,99933.24
2018-08-19T08:53:46.528Z,99930.95
2018-08-19T08:56:16.684Z,99921.69
2018-08-19T08:58:48.607Z,99926.11
2018-08-19T09:01:19.630Z,99920.11
2018-08-19T09:03:51.047Z,99919.75
2018-08-19T09:06:25.729Z,99918.74
2018-08-19T09:08:56.415Z,99920.63
2018-08-19T09:11:27.305Z,99919.20
2018-08-19T09:13:58.519Z,99911.28
2018-08-19T09:16:28.082Z,99910.84
2018-08-19T09:18:57.771Z,99909.63
2018-08-19T09:21:31.415Z,99899.05
2018-08-19T09:24:03.041Z,99902.48
2018-08-19T09:26:34.143Z,99900.52
2018-08-19T09:29:04.579Z,99908.33
2018-08-19T09:31:38.342Z,99891.77
2018-08-19T09:34:10.134Z,99892.52
2018-08-19T09:36:41.727Z,99892.33
2018-08-19T09:39:15.220Z,99881.31
2018-08-19T09:41:47.278Z,99881.23
2018-08-19T09:44:16.884Z,99879.28
2018-08-19T09:46:48.760Z,99873.48
2018-08-19T09:49:18.618Z,99869.44
2018-08-19T09:51:49.237Z,99869.54
2018-08-19T09:54:25.192Z,99866.61
2018-08-19T09:56:55.977Z,99866.56
2018-08-19T09:59:27.347Z,99861.27
2018-08-19T10:01:58.440Z,99854.13
2018-08-19T10:04:31.417Z,99824.89
2018-08-19T10:07:12.394Z,99843.84
2018-08-19T10:09:44.396Z,99844.23
2018-08-19T10:12:16.780Z,99837.97
2018-08-19T10:14:46.340Z,99841.54
2018-08-19T10:17:18.558Z,99833.47
2018-08-19T10:19:54.288Z,99829.43
2018-08-19T10:22:29.851Z,99821.92
2018-08-19T10:25:00.941Z,99822.89
2018-08-19T10:27:32.198Z,99814.89
2018-08-19T10:30:02.643Z,99816.13
2018-08-19T10:32:33.006Z,99808.20
2018-08-19T10:35:08.487Z,99810.41
2018-08-19T10:37:40.626Z,99809.97
2018-08-19T10:40:12.369Z,99801.63
2018-08-19T10:42:43.173Z,99814.81
2018-08-19T10:45:25.186Z,99813.97
2018-08-19T10:47:57.427Z,99807.92
2018-08-19T10:50:31.905Z,99802.42
2018-08-19T10:53:06.651Z,99802.19
2018-08-19T10:55:38.720Z,99798.41
2018-08-19T10:58:14.073Z,99789.32
2018-08-19T11:00:50.231Z,99788.88
2018-08-19T11:03:25.753Z,99793.44
2018-08-19T11:05:58.366Z,99784.78
2018-08-19T11:08:28.400Z,99782.88
2018-08-19T11:11:02.041Z,99784.95
2018-08-19T11:13:34.331Z,99781.52
2018-08-19T11:16:08.832Z,99779.70
2018-08-19T11:18:42.953Z,99781.45
2018-08-19T11:21:21.341Z,99780.64
2018-08-19T11:23:51.170Z,99776.45
2018-08-19T11:26:22.411Z,99772.20
2018-08-19T11:28:59.134Z,99767.47
2018-08-19T11:31:34.540Z,99763.72
2018-08-19T11:34:08.009Z,99757.09
2018-08-19T11:36:43.927Z,99766.35
2018-08-19T11:39:17.536Z,99761.67
2018-08-19T11:41:50.017Z,99754.16
2018-08-19T11:44:21.678Z,99754.12
2018-08-19T11:46:55.658Z,99740.53
2018-08-19T11:49:29.237Z,99739.52
2018-08-19T11:52:03.137Z,99743.14
2018-08-19T11:54:37.008Z,99725.78
2018-08-19T11:57:10.384Z,99733.46
2018-08-19T11:59:47.972Z,99738.98
2018-08-19T12:02:22.413Z,99734.34
2018-08-19T12:04:52.911Z,99734.14
2018-08-19T12:07:24.930Z,99730.42
2018-08-19T12:10:00.682Z,99729.64
2018-08-19T12:12:49.686Z,99706.40
2018-08-19T12:15:21.803Z,99717.25
2018-08-19T12:17:53.864Z,99718.73
2018-08-19T12:20:39.416Z,99712.98
2018-08-19T12:23:11.306Z,99704.08
2018-08-19T12:25:41.620Z,99703.37
2018-08-19T12:28:14.189Z,99663.88
2018-08-19T12:30:45.549Z,99690.50
2018-08-19T12:33:23.608Z,99683.94
2018-08-19T12:35:57.661Z,99681.23
2018-08-19T12:38:28.998Z,99679.67
2018-08-19T12:41:02.491Z,99665.13
2018-08-19T12:43:32.956Z,99670.05
2018-08-19T12:46:05.653Z,99655.72
2018-08-19T12:48:36.092Z,99655.97
2018-08-19T12:51:06.743Z,99621.44
2018-08-19T12:53:37.817Z,99651.08
2018-08-19T12:56:09.979Z,99648.55
2018-08-19T12:58:39.951Z,99637.52
2018-08-19T13:01:11.098Z,99632.45
2018-08-19T13:03:41.251Z,99635.00
2018-08-19T13:06:11.597Z,99638.20
2018-08-19T13:08:42.432Z,99637.75
2018-08-19T13:11:12.419Z,99631.31
2018-08-19T13:13:42.745Z,99624.76
2018-08-19T13:16:18.068Z,99617.19
2018-08-19T13:18:49.034Z,99615.38
2018-08-19T13:21:19.626Z,99612.59
2018-08-19T13:23:52.314Z,99609.05
2018-08-19T13:26:22.092Z,99601.73
2018-08-19T13:28:55.512Z,99598.80
2018-08-19T13:31:30.725Z,99600.53
2018-08-19T13:34:00.598Z,99599.13
2018-08-19T13:36:31.644Z,99592.97
2018-08-19T13:39:01.723Z,99586.70
2018-08-19T13:41:32.053Z,99579.56
2018-08-19T13:44:02.561Z,99585.37
2018-08-19T13:46:32.152Z,99568.41
2018-08-19T13:49:01.975Z,99569.13
2018-08-19T13:51:32.526Z,99565.70
2018-08-19T13:54:02.666Z,99561.89
2018-08-19T13:56:33.596Z,99575.33
2018-08-19T13:59:04.927Z,99561.05
2018-08-19T14:01:36.368Z,99553.32
2018-08-19T14:04:07.414Z,99546.94
2018-08-19T14:06:37.332Z,99541.20
2018-08-19T14:09:11.663Z,99542.08
2018-08-19T14:11:44.755Z,99532.41
2018-08-19T14:14:16.596Z,99534.19
2018-08-19T14:16:47.700Z,99535.24
2018-08-19T14:19:18.456Z,99540.89
2018-08-19T14:21:48.305Z,99526.91
2018-08-19T14:24:17.810Z,99529.16
2018-08-19T14:26:48.519Z,99522.63
2018-08-19T14:29:18.791Z,99519.47
2018-08-19T14:31:57.892Z,99511.67
2018-08-19T14:34:27.556Z,99505.80
2018-08-19T14:36:57.877Z,99491.70
2018-08-19T14:39:29.163Z,99482.55
2018-08-19T14:42:00.800Z,99505.97
2018-08-19T14:44:32.685Z,99504.04
2018-08-19T14:47:03.304Z,99500.52
2018-08-19T14:49:34.229Z,99499.53
2018-08-19T14:52:09.072Z,99498.02
2018-08-19T14:54:41.159Z,99497.12
2018-08-19T14:57:12.754Z,99498.64
2018-08-19T14:59:43.404Z,99495.45
2018-08-19T15:02:14.472Z,99490.34
2018-08-19T15:04:45.856Z,99482.91
2018-08-19T15:07:15.678Z,99494.58
2018-08-19T15:09:49.771Z,99483.70
2018-08-19T15:12:23.945Z,99484.38
2018-08-19T15:14:57.414Z,99478.32
2018-08-19T15:17:27.744Z,99481.95
2018-08-19T15:20:01.265Z,99472.01
2018-08-19T15:22:33.492Z,99474.13
2018-08-19T15:25:05.138Z,99479.77
2018-08-19T15:27:40.795Z,99464.69
2018-08-19T15:30:16.357Z,99443.99
2018-08-19T15:32:48.200Z,99455.62
2018-08-19T15:35:19.249Z,99466.06
2018-08-19T15:37:57.114Z,99460.09
2018-08-19T15:40:51.362Z,99455.52
2018-08-19T15:43:21.624Z,99470.89
2018-08-19T15:45:54.104Z,99467.06
2018-08-19T15:48:24.905Z,99455.53
2018-08-19T15:50:59.660Z,99463.25
2018-08-19T15:53:29.925Z,99454.23
2018-08-19T15:55:59.888Z,99457.39
2018-08-19T15:58:30.478Z,99465.85
2018-08-19T16:01:06.708Z,99460.99
2018-08-19T16:03:37.984Z,99456.33
2018-08-19T16:06:07.999Z,99453.97
2018-08-19T16:08:39.350Z,99444.80
2018-08-19T16:11:09.730Z,99454.48
2018-08-19T16:13:42.620Z,99453.97
2018-08-19T16:16:18.180Z,99445.47
2018-08-19T16:18:50.062Z,99451.30
2018-08-19T16:21:20.607Z,99447.45
2018-08-19T16:23:50.684Z,99444.27
2018-08-19T16:26:20.245Z,99436.02
2018-08-19T16:28:50.435Z,99445.73
2018-08-19T16:31:21.515Z,99445.28
2018-08-19T16:33:54.094Z,99440.92
2018-08-19T16:36:23.728Z,99438.50
2018-08-19T16:38:54.102Z,99439.20
2018-08-19T16:41:24.046Z,99440.27
2018-08-19T16:43:54.125Z,99410.10
2018-08-19T16:46:24.152Z,99432.80
2018-08-19T16:48:53.890Z,99429.44
2018-08-19T16:51:23.443Z,99429.75
2018-08-19T16:53:53.164Z,99427.36
2018-08-19T16:56:24.175Z,99427.77
2018-08-19T16:58:54.015Z,99423.59
2018-08-19T17:01:24.824Z,99426.47
2018-08-19T17:03:55.439Z,99433.66
2018-08-19T17:06:28.646Z,99433.73
2018-08-19T17:08:59.873Z,99424.25
2018-08-19T17:11:29.662Z,99425.14
2018-08-19T17:14:00.723Z,99428.89
2018-08-19T17:16:31.809Z,99410.52
2018-08-19T17:19:04.403Z,99427.20
2018-08-19T17:21:34.958Z,99428.64
2018-08-19T17:24:07.093Z,99427.10
2018-08-19T17:26:41.296Z,99427.37
2018-08-19T17:29:16.645Z,99431.77
2018-08-19T17:31:48.041Z,99435.45
2018-08-19T17:34:20.464Z,99427.61
2018-08-19T17:36:50.186Z,99436.20
2018-08-19T17:39:22.522Z,99431.60
2018-08-19T17:41:57.161Z,99434.44
2018-08-19T17:44:26.873Z,99432.23
2018-08-19T17:46:57.736Z,99434.19
2018-08-19T17:49:28.597Z,99436.91
2018-08-19T17:51:59.573Z,99445.23
2018-08-19T17:54:31.575Z,99448.31
2018-08-19T17:57:04.197Z,99450.56
2018-08-19T17:59:33.988Z,99445.62
2018-08-19T18:02:03.599Z,99452.37
2018-08-19T18:05:05.525Z,99450.66
2018-08-19T18:07:36.695Z,99455.45
2018-08-19T18:10:11.238Z,99460.05
2018-08-19T18:12:41.724Z,99457.70
2018-08-19T18:15:14.393Z,99459.24
2018-08-19T18:17:53.110Z,99464.03
2018-08-19T18:20:27.720Z,99466.19
2018-08-19T18:22:59.028Z,99462.34
2018-08-19T18:25:28.710Z,99464.75
2018-08-19T18:28:01.419Z,99472.91
2018-08-19T18:30:39.538Z,99468.38
2018-08-19T18:33:12.023Z,99468.39
2018-08-19T18:35:44.316Z,99467.69
2018-08-19T18:38:26.851Z,99472.92
2018-08-19T18:40:58.216Z,99470.42
2018-08-19T18:43:29.014Z,99474.98
2018-08-19T18:45:58.870Z,99477.03
2018-08-19T18:48:28.677Z,99480.20
2018-08-19T18:51:00.525Z,99479.50
2018-08-19T18:53:30.551Z,99484.00
2018-08-19T18:56:03.202Z,99480.88
2018-08-19T18:58:34.939Z,99482.09
2018-08-19T19:01:07.390Z,99479.58
2018-08-19T19:03:40.037Z,99486.36
2018-08-19T19:06:14.761Z,99496.97
2018-08-19T19:08:46.351Z,99494.62
2018-08-19T19:11:24.963Z,99489.35
2018-08-19T19:13:55.759Z,99494.81
2018-08-19T19:16:39.858Z,99491.56
2018-08-19T19:19:11.116Z,99493.73
2018-08-19T19:21:49.779Z,99490.70
2018-08-19T19:24:34.517Z,99495.86
2018-08-19T19:29:54.147Z,99492.08
2018-08-19T19:32:43.128Z,99489.31
2018-08-19T19:35:23.327Z,99489.61
2018-08-19T19:37:56.343Z,99464.42
2018-08-19T19:40:28.653Z,99492.61
2018-08-19T19:43:04.783Z,99494.17
2018-08-19T19:45:55.666Z,99498.00
2018-08-19T19:48:31.813Z,99498.55
2018-08-19T19:51:04.029Z,99490.64
2018-08-19T19:53:37.671Z,99494.53
2018-08-19T19:56:22.020Z,99506.13
2018-08-19T19:58:55.446Z,99499.91
2018-08-19T20:01:35.963Z,99469.42
2018-08-19T20:04:10.447Z,99491.20
2018-08-19T20:06:44.936Z,99496.44
2018-08-19T20:09:18.381Z,99474.52
2018-08-19T20:11:53.386Z,99491.23
2018-08-19T20:14:27.312Z,99492.05
2018-08-19T20:16:58.896Z,99501.63
2018-08-19T20:19:42.365Z,99494.22
2018-08-19T20:22:17.656Z,99499.88
2018-08-19T20:24:48.485Z,99498.00
2018-08-19T20:27:21.078Z,99501.78
2018-08-19T20:29:59.427Z,99502.25
2018-08-19T20:32:35.302Z,99498.01
2018-08-19T20:35:12.610Z,99496.73
2018-08-19T20:37:43.552Z,99501.68
2018-08-19T20:40:13.749Z,99501.85
2018-08-19T20:42:44.773Z,99503.27
2018-08-19T20:45:15.177Z,99504.31
2018-08-19T20:47:45.480Z,99507.53
2018-08-19T20:50:16.752Z,99503.27
2018-08-19T20:52:49.334Z,99510.38
2018-08-19T20:55:24.132Z,99517.74
2018-08-19T20:57:59.383Z,99520.33
2018-08-19T21:00:31.123Z,99516.68
2018-08-19T21:03:01.600Z,99517.27
2018-08-19T21:05:33.609Z,99517.99
2018-08-19T21:08:11.176Z,99514.45
2018-08-19T21:10:43.777Z,99523.52
2018-08-19T21:13:15.330Z,99514.88
2018-08-19T21:15:47.277Z,99520.91
2018-08-19T21:18:17.128Z,99519.17
2018-08-19T21:20:47.140Z,99520.58
2018-08-19T21:23:17.241Z,99518.08
2018-08-19T21:25:52.195Z,99525.93
2018-08-19T21:28:22.028Z,99527.30
2018-08-19T21:30:52.210Z,99528.64
2018-08-19T21:33:22.418Z,99525.71
2018-08-19T21:35:53.788Z,99530.63
2018-08-19T21:38:24.405Z,99533.95
2018-08-19T21:40:57.168Z,99504.48
2018-08-19T21:43:29.637Z,99525.80
2018-08-19T21:46:04.401Z,99531.60
2018-08-19T21:48:34.513Z,99537.75
2018-08-19T21:51:04.931Z,99536.54
2018-08-19T21:53:34.465Z,99534.91
2018-08-19T21:56:04.549Z,99533.92
2018-08-19T21:58:34.743Z,99537.41
2018-08-19T22:01:09.649Z,99529.12
2018-08-19T22:03:46.071Z,99529.30
2018-08-19T22:06:16.972Z,99523.70
2018-08-19T22:08:55.764Z,99495.55
2018-08-19T22:11:27.797Z,99520.34
2018-08-19T22:13:59.140Z,99523.27
2018-08-19T22:16:29.372Z,99527.17
2018-08-19T22:18:59.737Z,99533.41
2018-08-19T22:21:30.079Z,99532.70
2018-08-19T22:24:01.131Z,99532.98
2018-08-19T22:26:31.082Z,99537.16
2018-08-19T22:29:13.783Z,99539.14
2018-08-19T22:31:43.298Z,99545.48
2018-08-19T22:34:13.511Z,99547.70
2018-08-19T22:36:43.628Z,99541.59
2018-08-19T22:39:18.615Z,99544.97
2018-08-19T22:41:51.234Z,99543.60
2018-08-19T22:44:20.839Z,99541.58
2018-08-19T22:46:50.296Z,99537.65
2018-08-19T22:49:22.302Z,99536.17
2018-08-19T22:51:52.223Z,99531.94
2018-08-19T22:54:24.919Z,99534.30
2018-08-19T22:56:55.197Z,99533.22
2018-08-19T22:59:25.423Z,99533.64
2018-08-19T23:01:55.472Z,99532.22
2018-08-19T23:04:25.745Z,99526.64
2018-08-19T23:06:55.624Z,99531.58
2018-08-19T23:09:25.145Z,99529.14
2018-08-19T23:11:55.879Z,99533.14
2018-08-19T23:14:36.195Z,99530.67
2018-08-19T23:17:09.044Z,99534.55
2018-08-19T23:19:38.654Z,99534.86
2018-08-19T23:22:08.508Z,99528.84
2018-08-19T23:24:40.045Z,99528.39
2018-08-19T23:27:11.327Z,99525.84
2018-08-19T23:29:40.775Z,99523.66
2018-08-19T23:32:10.204Z,99524.02
2018-08-19T23:34:40.434Z,99522.48
2018-08-19T23:37:10.284Z,99527.89
2018-08-19T23:39:40.143Z,99533.77
2018-08-19T23:42:09.765Z,99530.45
2018-08-19T23:44:40.327Z,99533.70
2018-08-19T23:47:10.360Z,99526.56
2018-08-19T23:49:40.021Z,99526.30
2018-08-19T23:52:09.775Z,99527.84
2018-08-19T23:54:39.926Z,99528.69
2018-08-19T23:57:10.362Z,99533.79
2018-08-19T23:59:40.158Z,99529.36
